sensor_id;sensor_type;location;lat;lon;timestamp;temperature;humidity
44513;DHT22;30219;50.588;9.504;2023-03-26T00:01:01;7.20;99.90
44513;DHT22;30219;50.588;9.504;2023-03-26T00:03:33;7.20;99.90
44513;DHT22;30219;50.588;9.504;2023-03-26T00:06:03;7.20;99.90
44513;DHT22;30219;50.588;9.504;2023-03-26T00:08:30;7.20;99.90
44513;DHT22;30219;50.588;9.504;2023-03-26T00:10:55;7.30;99.90
44513;DHT22;30219;50.588;9.504;2023-03-26T00:13:21;7.30;99.90
44513;DHT22;30219;50.588;9.504;2023-03-26T00:15:46;7.30;99.90
44513;DHT22;30219;50.588;9.504;2023-03-26T00:18:12;7.30;99.90
44513;DHT22;30219;50.588;9.504;2023-03-26T00:20:38;7.30;99.90
44513;DHT22;30219;50.588;9.504;2023-03-26T00:23:05;7.30;99.90
44513;DHT22;30219;50.588;9.504;2023-03-26T00:25:32;7.40;99.90
44513;DHT22;30219;50.588;9.504;2023-03-26T00:27:59;7.40;99.90
44513;DHT22;30219;50.588;9.504;2023-03-26T00:30:24;7.40;99.90
44513;DHT22;30219;50.588;9.504;2023-03-26T00:32:50;7.40;99.90
44513;DHT22;30219;50.588;9.504;2023-03-26T00:35:15;7.40;99.90
44513;DHT22;30219;50.588;9.504;2023-03-26T00:37:41;7.40;99.90
44513;DHT22;30219;50.588;9.504;2023-03-26T00:40:10;7.40;99.90
44513;DHT22;30219;50.588;9.504;2023-03-26T00:42:36;7.40;99.90
44513;DHT22;30219;50.588;9.504;2023-03-26T00:45:03;7.40;99.90
44513;DHT22;30219;50.588;9.504;2023-03-26T00:47:29;7.40;99.90
44513;DHT22;30219;50.588;9.504;2023-03-26T00:49:55;7.40;99.90
44513;DHT22;30219;50.588;9.504;2023-03-26T00:52:21;7.40;99.90
44513;DHT22;30219;50.588;9.504;2023-03-26T00:54:49;7.40;99.90
44513;DHT22;30219;50.588;9.504;2023-03-26T00:57:15;7.40;99.90
44513;DHT22;30219;50.588;9.504;2023-03-26T00:59:41;7.40;99.90
44513;DHT22;30219;50.588;9.504;2023-03-26T01:02:07;7.40;99.90
44513;DHT22;30219;50.588;9.504;2023-03-26T01:04:35;7.40;99.90
44513;DHT22;30219;50.588;9.504;2023-03-26T01:07:02;7.40;99.90
44513;DHT22;30219;50.588;9.504;2023-03-26T01:09:35;7.50;99.90
44513;DHT22;30219;50.588;9.504;2023-03-26T01:12:02;7.40;99.90
44513;DHT22;30219;50.588;9.504;2023-03-26T01:14:28;7.50;99.90
44513;DHT22;30219;50.588;9.504;2023-03-26T01:16:55;7.50;99.90
44513;DHT22;30219;50.588;9.504;2023-03-26T01:22:03;7.50;99.90
44513;DHT22;30219;50.588;9.504;2023-03-26T01:24:29;7.50;99.90
44513;DHT22;30219;50.588;9.504;2023-03-26T01:29:48;7.60;99.90
44513;DHT22;30219;50.588;9.504;2023-03-26T01:32:21;7.60;99.90
44513;DHT22;30219;50.588;9.504;2023-03-26T01:34:52;7.50;99.90
44513;DHT22;30219;50.588;9.504;2023-03-26T01:37:39;7.50;99.90
44513;DHT22;30219;50.588;9.504;2023-03-26T01:42:38;7.50;99.90
44513;DHT22;30219;50.588;9.504;2023-03-26T01:45:10;7.40;99.90
44513;DHT22;30219;50.588;9.504;2023-03-26T01:47:38;7.40;99.90
44513;DHT22;30219;50.588;9.504;2023-03-26T01:50:04;7.30;99.90
44513;DHT22;30219;50.588;9.504;2023-03-26T01:52:29;7.30;99.90
44513;DHT22;30219;50.588;9.504;2023-03-26T01:54:55;7.30;99.90
44513;DHT22;30219;50.588;9.504;2023-03-26T02:00:21;7.30;99.90
44513;DHT22;30219;50.588;9.504;2023-03-26T02:05:33;7.20;99.90
44513;DHT22;30219;50.588;9.504;2023-03-26T02:10:30;7.20;99.90
44513;DHT22;30219;50.588;9.504;2023-03-26T02:12:59;7.20;99.90
44513;DHT22;30219;50.588;9.504;2023-03-26T02:15:25;7.30;99.90
44513;DHT22;30219;50.588;9.504;2023-03-26T02:17:50;7.30;99.90
44513;DHT22;30219;50.588;9.504;2023-03-26T02:20:17;7.30;99.90
44513;DHT22;30219;50.588;9.504;2023-03-26T02:22:44;7.30;99.90
44513;DHT22;30219;50.588;9.504;2023-03-26T02:25:14;7.30;99.90
44513;DHT22;30219;50.588;9.504;2023-03-26T02:27:40;7.30;99.90
44513;DHT22;30219;50.588;9.504;2023-03-26T02:30:06;7.20;99.90
44513;DHT22;30219;50.588;9.504;2023-03-26T02:32:32;7.10;99.90
44513;DHT22;30219;50.588;9.504;2023-03-26T02:34:57;7.10;99.90
44513;DHT22;30219;50.588;9.504;2023-03-26T02:37:24;7.10;99.90
44513;DHT22;30219;50.588;9.504;2023-03-26T02:39:49;7.10;99.90
44513;DHT22;30219;50.588;9.504;2023-03-26T02:42:14;7.10;99.90
44513;DHT22;30219;50.588;9.504;2023-03-26T02:44:40;7.00;99.90
44513;DHT22;30219;50.588;9.504;2023-03-26T02:47:06;7.00;99.90
44513;DHT22;30219;50.588;9.504;2023-03-26T02:49:31;7.00;99.90
44513;DHT22;30219;50.588;9.504;2023-03-26T02:51:58;6.90;99.90
44513;DHT22;30219;50.588;9.504;2023-03-26T02:54:23;6.90;99.90
44513;DHT22;30219;50.588;9.504;2023-03-26T02:56:49;6.90;99.90
44513;DHT22;30219;50.588;9.504;2023-03-26T02:59:15;6.90;99.90
44513;DHT22;30219;50.588;9.504;2023-03-26T03:01:40;6.90;99.90
44513;DHT22;30219;50.588;9.504;2023-03-26T03:04:10;6.80;99.90
44513;DHT22;30219;50.588;9.504;2023-03-26T03:06:36;6.90;99.90
44513;DHT22;30219;50.588;9.504;2023-03-26T03:09:05;6.90;99.90
44513;DHT22;30219;50.588;9.504;2023-03-26T03:11:33;6.90;99.90
44513;DHT22;30219;50.588;9.504;2023-03-26T03:13:58;6.80;99.90
44513;DHT22;30219;50.588;9.504;2023-03-26T03:16:24;6.80;99.90
44513;DHT22;30219;50.588;9.504;2023-03-26T03:18:49;6.80;99.90
44513;DHT22;30219;50.588;9.504;2023-03-26T03:21:22;6.80;99.90
44513;DHT22;30219;50.588;9.504;2023-03-26T03:23:47;6.70;99.90
44513;DHT22;30219;50.588;9.504;2023-03-26T03:26:14;6.80;99.90
44513;DHT22;30219;50.588;9.504;2023-03-26T03:28:40;6.70;99.90
44513;DHT22;30219;50.588;9.504;2023-03-26T03:31:06;6.70;99.90
44513;DHT22;30219;50.588;9.504;2023-03-26T03:33:33;6.60;99.90
44513;DHT22;30219;50.588;9.504;2023-03-26T03:35:58;6.60;99.90
44513;DHT22;30219;50.588;9.504;2023-03-26T03:38:24;6.50;99.90
44513;DHT22;30219;50.588;9.504;2023-03-26T03:40:50;6.40;99.90
44513;DHT22;30219;50.588;9.504;2023-03-26T03:43:15;6.40;99.90
44513;DHT22;30219;50.588;9.504;2023-03-26T03:45:41;6.40;99.90
44513;DHT22;30219;50.588;9.504;2023-03-26T03:48:06;6.40;99.90
44513;DHT22;30219;50.588;9.504;2023-03-26T03:50:32;6.40;99.90
44513;DHT22;30219;50.588;9.504;2023-03-26T03:52:57;6.40;99.90
44513;DHT22;30219;50.588;9.504;2023-03-26T03:55:23;6.30;99.90
44513;DHT22;30219;50.588;9.504;2023-03-26T03:57:52;6.30;99.90
44513;DHT22;30219;50.588;9.504;2023-03-26T04:00:18;6.30;99.90
44513;DHT22;30219;50.588;9.504;2023-03-26T04:02:43;6.30;99.90
44513;DHT22;30219;50.588;9.504;2023-03-26T04:05:10;6.20;99.90
44513;DHT22;30219;50.588;9.504;2023-03-26T04:07:36;6.30;99.90
44513;DHT22;30219;50.588;9.504;2023-03-26T04:10:01;6.20;99.90
44513;DHT22;30219;50.588;9.504;2023-03-26T04:12:28;6.20;99.90
44513;DHT22;30219;50.588;9.504;2023-03-26T04:14:54;6.30;99.90
44513;DHT22;30219;50.588;9.504;2023-03-26T04:17:19;6.30;99.90
44513;DHT22;30219;50.588;9.504;2023-03-26T04:19:48;6.30;99.90
44513;DHT22;30219;50.588;9.504;2023-03-26T04:22:15;6.30;99.90
44513;DHT22;30219;50.588;9.504;2023-03-26T04:24:42;6.40;99.90
44513;DHT22;30219;50.588;9.504;2023-03-26T04:27:08;6.40;99.90
44513;DHT22;30219;50.588;9.504;2023-03-26T04:29:37;6.40;99.90
44513;DHT22;30219;50.588;9.504;2023-03-26T04:32:08;6.40;99.90
44513;DHT22;30219;50.588;9.504;2023-03-26T04:34:37;6.40;99.90
44513;DHT22;30219;50.588;9.504;2023-03-26T04:37:02;6.40;99.90
44513;DHT22;30219;50.588;9.504;2023-03-26T04:39:29;6.40;99.90
44513;DHT22;30219;50.588;9.504;2023-03-26T04:41:55;6.30;99.90
44513;DHT22;30219;50.588;9.504;2023-03-26T04:44:20;6.20;99.90
44513;DHT22;30219;50.588;9.504;2023-03-26T04:46:47;6.10;99.90
44513;DHT22;30219;50.588;9.504;2023-03-26T04:49:14;6.10;99.90
44513;DHT22;30219;50.588;9.504;2023-03-26T04:51:40;6.20;99.90
44513;DHT22;30219;50.588;9.504;2023-03-26T04:54:06;6.20;99.90
44513;DHT22;30219;50.588;9.504;2023-03-26T04:58:58;6.20;99.90
44513;DHT22;30219;50.588;9.504;2023-03-26T05:01:24;6.10;99.90
44513;DHT22;30219;50.588;9.504;2023-03-26T05:03:52;6.20;99.90
44513;DHT22;30219;50.588;9.504;2023-03-26T05:06:18;6.10;99.90
44513;DHT22;30219;50.588;9.504;2023-03-26T05:08:45;6.10;99.90
44513;DHT22;30219;50.588;9.504;2023-03-26T05:11:11;6.20;99.90
44513;DHT22;30219;50.588;9.504;2023-03-26T05:13:36;6.20;99.90
44513;DHT22;30219;50.588;9.504;2023-03-26T05:16:02;6.20;99.90
44513;DHT22;30219;50.588;9.504;2023-03-26T05:18:28;6.20;99.90
44513;DHT22;30219;50.588;9.504;2023-03-26T05:20:53;6.20;99.90
44513;DHT22;30219;50.588;9.504;2023-03-26T05:23:21;6.30;99.90
44513;DHT22;30219;50.588;9.504;2023-03-26T05:25:46;6.30;99.90
44513;DHT22;30219;50.588;9.504;2023-03-26T05:28:12;6.30;99.90
44513;DHT22;30219;50.588;9.504;2023-03-26T05:30:38;6.40;99.90
44513;DHT22;30219;50.588;9.504;2023-03-26T05:33:03;6.40;99.90
44513;DHT22;30219;50.588;9.504;2023-03-26T05:35:29;6.40;99.90
44513;DHT22;30219;50.588;9.504;2023-03-26T05:37:54;6.50;99.90
44513;DHT22;30219;50.588;9.504;2023-03-26T05:40:20;6.60;99.90
44513;DHT22;30219;50.588;9.504;2023-03-26T05:42:45;6.50;99.90
44513;DHT22;30219;50.588;9.504;2023-03-26T05:45:12;6.50;99.90
44513;DHT22;30219;50.588;9.504;2023-03-26T05:47:38;6.40;99.90
44513;DHT22;30219;50.588;9.504;2023-03-26T05:50:04;6.40;99.90
44513;DHT22;30219;50.588;9.504;2023-03-26T05:52:30;6.50;99.90
44513;DHT22;30219;50.588;9.504;2023-03-26T05:54:55;6.50;99.90
44513;DHT22;30219;50.588;9.504;2023-03-26T05:57:21;6.60;99.90
44513;DHT22;30219;50.588;9.504;2023-03-26T05:59:48;6.50;99.90
44513;DHT22;30219;50.588;9.504;2023-03-26T06:02:14;6.50;99.90
44513;DHT22;30219;50.588;9.504;2023-03-26T06:04:39;6.60;99.90
44513;DHT22;30219;50.588;9.504;2023-03-26T06:07:07;6.60;99.90
44513;DHT22;30219;50.588;9.504;2023-03-26T06:09:35;6.60;99.90
44513;DHT22;30219;50.588;9.504;2023-03-26T06:12:05;6.70;99.90
44513;DHT22;30219;50.588;9.504;2023-03-26T06:14:31;6.60;99.90
44513;DHT22;30219;50.588;9.504;2023-03-26T06:16:56;6.60;99.90
44513;DHT22;30219;50.588;9.504;2023-03-26T06:19:22;6.50;99.90
44513;DHT22;30219;50.588;9.504;2023-03-26T06:21:47;6.60;99.90
44513;DHT22;30219;50.588;9.504;2023-03-26T06:24:13;6.60;99.90
44513;DHT22;30219;50.588;9.504;2023-03-26T06:26:40;6.50;99.90
44513;DHT22;30219;50.588;9.504;2023-03-26T06:29:06;6.50;99.90
44513;DHT22;30219;50.588;9.504;2023-03-26T06:31:31;6.50;99.90
44513;DHT22;30219;50.588;9.504;2023-03-26T06:33:57;6.50;99.90
44513;DHT22;30219;50.588;9.504;2023-03-26T06:36:22;6.50;99.90
44513;DHT22;30219;50.588;9.504;2023-03-26T06:38:48;6.50;99.90
44513;DHT22;30219;50.588;9.504;2023-03-26T06:41:13;6.50;99.90
44513;DHT22;30219;50.588;9.504;2023-03-26T06:43:39;6.60;99.90
44513;DHT22;30219;50.588;9.504;2023-03-26T06:46:04;6.60;99.90
44513;DHT22;30219;50.588;9.504;2023-03-26T06:48:30;6.60;99.90
44513;DHT22;30219;50.588;9.504;2023-03-26T06:50:56;6.60;99.90
44513;DHT22;30219;50.588;9.504;2023-03-26T06:53:21;6.70;99.90
44513;DHT22;30219;50.588;9.504;2023-03-26T06:55:47;6.70;99.90
44513;DHT22;30219;50.588;9.504;2023-03-26T06:58:12;6.70;99.90
44513;DHT22;30219;50.588;9.504;2023-03-26T07:00:38;6.80;99.90
44513;DHT22;30219;50.588;9.504;2023-03-26T07:03:04;6.80;99.90
44513;DHT22;30219;50.588;9.504;2023-03-26T07:05:29;6.90;99.90
44513;DHT22;30219;50.588;9.504;2023-03-26T07:07:55;6.90;99.90
44513;DHT22;30219;50.588;9.504;2023-03-26T07:10:20;6.90;99.90
44513;DHT22;30219;50.588;9.504;2023-03-26T07:12:46;7.00;99.90
44513;DHT22;30219;50.588;9.504;2023-03-26T07:15:11;7.00;99.90
44513;DHT22;30219;50.588;9.504;2023-03-26T07:17:37;7.00;99.90
44513;DHT22;30219;50.588;9.504;2023-03-26T07:20:03;7.00;99.90
44513;DHT22;30219;50.588;9.504;2023-03-26T07:22:29;7.00;99.90
44513;DHT22;30219;50.588;9.504;2023-03-26T07:24:55;7.00;99.90
44513;DHT22;30219;50.588;9.504;2023-03-26T07:27:24;7.00;99.90
44513;DHT22;30219;50.588;9.504;2023-03-26T07:32:29;7.10;99.90
44513;DHT22;30219;50.588;9.504;2023-03-26T07:35:00;7.20;99.90
44513;DHT22;30219;50.588;9.504;2023-03-26T07:37:31;7.30;99.90
44513;DHT22;30219;50.588;9.504;2023-03-26T07:45:12;7.50;99.90
44513;DHT22;30219;50.588;9.504;2023-03-26T07:47:41;7.60;99.90
44513;DHT22;30219;50.588;9.504;2023-03-26T07:50:07;7.70;99.90
44513;DHT22;30219;50.588;9.504;2023-03-26T07:52:38;7.70;99.90
44513;DHT22;30219;50.588;9.504;2023-03-26T07:55:03;7.60;99.90
44513;DHT22;30219;50.588;9.504;2023-03-26T07:57:32;7.50;99.90
44513;DHT22;30219;50.588;9.504;2023-03-26T08:05:09;7.60;99.90
44513;DHT22;30219;50.588;9.504;2023-03-26T08:22:35;7.80;99.90
44513;DHT22;30219;50.588;9.504;2023-03-26T08:27:32;7.90;99.90
44513;DHT22;30219;50.588;9.504;2023-03-26T08:30:23;8.10;99.90
44513;DHT22;30219;50.588;9.504;2023-03-26T08:32:55;8.10;99.90
44513;DHT22;30219;50.588;9.504;2023-03-26T08:35:21;8.20;99.90
44513;DHT22;30219;50.588;9.504;2023-03-26T08:37:47;8.20;99.90
44513;DHT22;30219;50.588;9.504;2023-03-26T08:40:15;8.20;99.90
44513;DHT22;30219;50.588;9.504;2023-03-26T08:45:24;8.30;99.90
44513;DHT22;30219;50.588;9.504;2023-03-26T08:53:36;8.40;99.90
44513;DHT22;30219;50.588;9.504;2023-03-26T09:14:39;8.20;99.90
44513;DHT22;30219;50.588;9.504;2023-03-26T09:17:13;8.20;99.90
44513;DHT22;30219;50.588;9.504;2023-03-26T09:30:31;8.20;99.90
44513;DHT22;30219;50.588;9.504;2023-03-26T09:33:14;8.10;99.90
44513;DHT22;30219;50.588;9.504;2023-03-26T09:38:35;8.10;99.90
44513;DHT22;30219;50.588;9.504;2023-03-26T09:47:06;7.90;99.90
44513;DHT22;30219;50.588;9.504;2023-03-26T09:49:19;7.90;99.90
44513;DHT22;30219;50.588;9.504;2023-03-26T09:51:54;7.90;99.90
44513;DHT22;30219;50.588;9.504;2023-03-26T09:54:29;8.00;99.90
44513;DHT22;30219;50.588;9.504;2023-03-26T10:02:27;7.80;99.90
44513;DHT22;30219;50.588;9.504;2023-03-26T10:07:43;7.50;99.90
44513;DHT22;30219;50.588;9.504;2023-03-26T10:12:52;7.20;99.90
44513;DHT22;30219;50.588;9.504;2023-03-26T10:18:08;7.10;99.90
44513;DHT22;30219;50.588;9.504;2023-03-26T10:20:51;7.20;99.90
44513;DHT22;30219;50.588;9.504;2023-03-26T10:31:36;7.20;99.90
44513;DHT22;30219;50.588;9.504;2023-03-26T10:34:17;7.20;99.90
44513;DHT22;30219;50.588;9.504;2023-03-26T10:36:49;7.20;99.90
44513;DHT22;30219;50.588;9.504;2023-03-26T10:52:11;7.10;99.90
44513;DHT22;30219;50.588;9.504;2023-03-26T10:54:44;7.10;99.90
44513;DHT22;30219;50.588;9.504;2023-03-26T10:59:51;7.30;99.90
44513;DHT22;30219;50.588;9.504;2023-03-26T11:07:37;7.40;99.90
44513;DHT22;30219;50.588;9.504;2023-03-26T11:10:11;7.40;99.90
44513;DHT22;30219;50.588;9.504;2023-03-26T11:12:47;7.50;99.90
44513;DHT22;30219;50.588;9.504;2023-03-26T11:17:50;7.50;99.90
44513;DHT22;30219;50.588;9.504;2023-03-26T11:20:31;7.40;99.90
44513;DHT22;30219;50.588;9.504;2023-03-26T11:30:34;7.30;99.90
44513;DHT22;30219;50.588;9.504;2023-03-26T11:33:04;7.30;99.90
44513;DHT22;30219;50.588;9.504;2023-03-26T11:37:58;7.30;99.90
44513;DHT22;30219;50.588;9.504;2023-03-26T11:40:30;7.30;99.90
44513;DHT22;30219;50.588;9.504;2023-03-26T11:43:01;7.30;99.90
44513;DHT22;30219;50.588;9.504;2023-03-26T11:45:32;7.30;99.90
44513;DHT22;30219;50.588;9.504;2023-03-26T11:48:03;7.30;99.90
44513;DHT22;30219;50.588;9.504;2023-03-26T11:50:29;7.40;99.90
44513;DHT22;30219;50.588;9.504;2023-03-26T11:52:57;7.40;99.90
44513;DHT22;30219;50.588;9.504;2023-03-26T11:55:23;7.40;99.90
44513;DHT22;30219;50.588;9.504;2023-03-26T11:57:52;7.50;99.90
44513;DHT22;30219;50.588;9.504;2023-03-26T12:00:18;7.50;99.90
44513;DHT22;30219;50.588;9.504;2023-03-26T12:02:46;7.50;99.90
44513;DHT22;30219;50.588;9.504;2023-03-26T12:05:13;7.50;99.90
44513;DHT22;30219;50.588;9.504;2023-03-26T12:10:24;7.60;99.90
44513;DHT22;30219;50.588;9.504;2023-03-26T12:12:51;7.70;99.90
44513;DHT22;30219;50.588;9.504;2023-03-26T12:15:18;7.70;99.90
44513;DHT22;30219;50.588;9.504;2023-03-26T12:17:45;7.70;99.90
44513;DHT22;30219;50.588;9.504;2023-03-26T12:22:55;7.80;99.90
44513;DHT22;30219;50.588;9.504;2023-03-26T12:25:25;7.90;99.90
44513;DHT22;30219;50.588;9.504;2023-03-26T12:28:04;7.90;99.90
44513;DHT22;30219;50.588;9.504;2023-03-26T12:30:42;7.80;99.90
44513;DHT22;30219;50.588;9.504;2023-03-26T12:33:18;7.90;99.90
44513;DHT22;30219;50.588;9.504;2023-03-26T12:35:46;8.10;99.90
44513;DHT22;30219;50.588;9.504;2023-03-26T12:38:13;8.10;99.90
44513;DHT22;30219;50.588;9.504;2023-03-26T12:40:39;8.10;99.90
44513;DHT22;30219;50.588;9.504;2023-03-26T12:43:20;8.20;99.90
44513;DHT22;30219;50.588;9.504;2023-03-26T12:45:47;8.20;99.90
44513;DHT22;30219;50.588;9.504;2023-03-26T12:48:14;8.40;99.90
44513;DHT22;30219;50.588;9.504;2023-03-26T12:56:00;8.50;99.90
44513;DHT22;30219;50.588;9.504;2023-03-26T13:01:19;8.60;99.90
44513;DHT22;30219;50.588;9.504;2023-03-26T13:09:07;8.60;99.90
44513;DHT22;30219;50.588;9.504;2023-03-26T13:37:49;9.60;99.90
44513;DHT22;30219;50.588;9.504;2023-03-26T13:45:41;9.30;99.90
44513;DHT22;30219;50.588;9.504;2023-03-26T13:48:11;9.40;99.90
44513;DHT22;30219;50.588;9.504;2023-03-26T13:50:40;9.40;99.90
44513;DHT22;30219;50.588;9.504;2023-03-26T13:55:40;9.60;99.90
44513;DHT22;30219;50.588;9.504;2023-03-26T14:00:48;9.40;99.90
44513;DHT22;30219;50.588;9.504;2023-03-26T14:03:26;9.40;99.90
44513;DHT22;30219;50.588;9.504;2023-03-26T14:05:54;9.40;99.90
44513;DHT22;30219;50.588;9.504;2023-03-26T14:10:54;9.40;99.90
44513;DHT22;30219;50.588;9.504;2023-03-26T14:13:26;9.50;99.90
44513;DHT22;30219;50.588;9.504;2023-03-26T14:15:54;9.30;99.90
44513;DHT22;30219;50.588;9.504;2023-03-26T14:18:24;9.40;99.90
44513;DHT22;30219;50.588;9.504;2023-03-26T14:26:14;9.20;99.90
44513;DHT22;30219;50.588;9.504;2023-03-26T14:31:20;9.30;99.90
44513;DHT22;30219;50.588;9.504;2023-03-26T14:33:57;9.40;99.90
44513;DHT22;30219;50.588;9.504;2023-03-26T14:41:24;9.50;99.90
44513;DHT22;30219;50.588;9.504;2023-03-26T14:46:38;9.40;99.90
44513;DHT22;30219;50.588;9.504;2023-03-26T14:54:25;9.60;99.90
44513;DHT22;30219;50.588;9.504;2023-03-26T15:04:48;9.70;99.90
44513;DHT22;30219;50.588;9.504;2023-03-26T15:12:39;9.60;99.90
44513;DHT22;30219;50.588;9.504;2023-03-26T15:51:55;7.70;99.90
44513;DHT22;30219;50.588;9.504;2023-03-26T15:56:53;7.70;99.90
44513;DHT22;30219;50.588;9.504;2023-03-26T16:04:47;7.80;99.90
44513;DHT22;30219;50.588;9.504;2023-03-26T16:12:43;7.90;99.90
44513;DHT22;30219;50.588;9.504;2023-03-26T16:15:14;7.80;99.90
44513;DHT22;30219;50.588;9.504;2023-03-26T16:20:32;7.50;99.90
44513;DHT22;30219;50.588;9.504;2023-03-26T16:22:58;7.30;99.90
44513;DHT22;30219;50.588;9.504;2023-03-26T16:25:32;7.30;99.90
44513;DHT22;30219;50.588;9.504;2023-03-26T16:30:36;7.30;99.90
44513;DHT22;30219;50.588;9.504;2023-03-26T16:36:00;7.20;99.90
44513;DHT22;30219;50.588;9.504;2023-03-26T16:38:26;7.20;99.90
44513;DHT22;30219;50.588;9.504;2023-03-26T16:41:28;7.30;99.90
44513;DHT22;30219;50.588;9.504;2023-03-26T16:44:01;7.20;99.90
44513;DHT22;30219;50.588;9.504;2023-03-26T16:48:56;7.00;99.90
44513;DHT22;30219;50.588;9.504;2023-03-26T16:51:29;7.10;99.90
44513;DHT22;30219;50.588;9.504;2023-03-26T16:54:12;7.10;99.90
44513;DHT22;30219;50.588;9.504;2023-03-26T17:02:15;7.00;99.90
44513;DHT22;30219;50.588;9.504;2023-03-26T17:04:42;7.00;99.90
44513;DHT22;30219;50.588;9.504;2023-03-26T17:07:11;7.00;99.90
44513;DHT22;30219;50.588;9.504;2023-03-26T17:12:49;6.90;99.90
44513;DHT22;30219;50.588;9.504;2023-03-26T17:20:54;6.80;99.90
44513;DHT22;30219;50.588;9.504;2023-03-26T17:23:33;6.80;99.90
44513;DHT22;30219;50.588;9.504;2023-03-26T17:31:15;6.90;99.90
44513;DHT22;30219;50.588;9.504;2023-03-26T17:33:42;7.00;99.90
44513;DHT22;30219;50.588;9.504;2023-03-26T17:41:05;7.00;99.90
44513;DHT22;30219;50.588;9.504;2023-03-26T17:43:32;6.90;99.90
44513;DHT22;30219;50.588;9.504;2023-03-26T17:45:59;6.90;99.90
44513;DHT22;30219;50.588;9.504;2023-03-26T17:48:25;6.80;99.90
44513;DHT22;30219;50.588;9.504;2023-03-26T17:50:53;6.80;99.90
44513;DHT22;30219;50.588;9.504;2023-03-26T17:53:22;6.80;99.90
44513;DHT22;30219;50.588;9.504;2023-03-26T17:55:49;6.70;99.90
44513;DHT22;30219;50.588;9.504;2023-03-26T18:00:44;6.80;99.90
44513;DHT22;30219;50.588;9.504;2023-03-26T18:03:13;6.80;99.90
44513;DHT22;30219;50.588;9.504;2023-03-26T18:05:42;6.80;99.90
44513;DHT22;30219;50.588;9.504;2023-03-26T18:18:43;7.00;99.90
44513;DHT22;30219;50.588;9.504;2023-03-26T18:21:11;7.00;99.90
44513;DHT22;30219;50.588;9.504;2023-03-26T18:23:40;7.00;99.90
44513;DHT22;30219;50.588;9.504;2023-03-26T18:26:10;7.00;99.90
44513;DHT22;30219;50.588;9.504;2023-03-26T18:28:40;7.00;99.90
44513;DHT22;30219;50.588;9.504;2023-03-26T18:31:07;7.10;99.90
44513;DHT22;30219;50.588;9.504;2023-03-26T18:33:42;7.10;99.90
44513;DHT22;30219;50.588;9.504;2023-03-26T18:36:09;7.10;99.90
44513;DHT22;30219;50.588;9.504;2023-03-26T18:38:35;7.20;99.90
44513;DHT22;30219;50.588;9.504;2023-03-26T18:41:01;7.10;99.90
44513;DHT22;30219;50.588;9.504;2023-03-26T18:43:27;7.20;99.90
44513;DHT22;30219;50.588;9.504;2023-03-26T18:45:53;7.10;99.90
44513;DHT22;30219;50.588;9.504;2023-03-26T18:48:22;7.10;99.90
44513;DHT22;30219;50.588;9.504;2023-03-26T18:50:53;7.20;99.90
44513;DHT22;30219;50.588;9.504;2023-03-26T18:53:21;7.20;99.90
44513;DHT22;30219;50.588;9.504;2023-03-26T18:55:48;7.20;99.90
44513;DHT22;30219;50.588;9.504;2023-03-26T18:58:24;7.20;99.90
44513;DHT22;30219;50.588;9.504;2023-03-26T19:00:51;7.20;99.90
44513;DHT22;30219;50.588;9.504;2023-03-26T19:03:19;7.10;99.90
44513;DHT22;30219;50.588;9.504;2023-03-26T19:05:45;7.10;99.90
44513;DHT22;30219;50.588;9.504;2023-03-26T19:08:10;7.10;99.90
44513;DHT22;30219;50.588;9.504;2023-03-26T19:10:36;7.10;99.90
44513;DHT22;30219;50.588;9.504;2023-03-26T19:13:02;7.10;99.90
44513;DHT22;30219;50.588;9.504;2023-03-26T19:15:31;7.10;99.90
44513;DHT22;30219;50.588;9.504;2023-03-26T19:18:04;7.10;99.90
44513;DHT22;30219;50.588;9.504;2023-03-26T19:20:43;7.10;99.90
44513;DHT22;30219;50.588;9.504;2023-03-26T19:23:11;7.10;99.90
44513;DHT22;30219;50.588;9.504;2023-03-26T19:25:42;7.10;99.90
44513;DHT22;30219;50.588;9.504;2023-03-26T19:28:16;7.10;99.90
44513;DHT22;30219;50.588;9.504;2023-03-26T19:30:42;7.10;99.90
44513;DHT22;30219;50.588;9.504;2023-03-26T19:33:32;7.10;99.90
44513;DHT22;30219;50.588;9.504;2023-03-26T19:36:03;7.10;99.90
44513;DHT22;30219;50.588;9.504;2023-03-26T19:38:36;7.20;99.90
44513;DHT22;30219;50.588;9.504;2023-03-26T19:41:02;7.10;99.90
44513;DHT22;30219;50.588;9.504;2023-03-26T19:43:28;7.10;99.90
44513;DHT22;30219;50.588;9.504;2023-03-26T19:45:56;7.10;99.90
44513;DHT22;30219;50.588;9.504;2023-03-26T19:48:31;7.10;99.90
44513;DHT22;30219;50.588;9.504;2023-03-26T19:51:01;7.00;99.90
44513;DHT22;30219;50.588;9.504;2023-03-26T19:53:32;7.00;99.90
44513;DHT22;30219;50.588;9.504;2023-03-26T19:56:01;7.00;99.90
44513;DHT22;30219;50.588;9.504;2023-03-26T19:58:27;7.00;99.90
44513;DHT22;30219;50.588;9.504;2023-03-26T20:00:54;7.00;99.90
44513;DHT22;30219;50.588;9.504;2023-03-26T20:03:29;7.00;99.90
44513;DHT22;30219;50.588;9.504;2023-03-26T20:06:00;7.00;99.90
44513;DHT22;30219;50.588;9.504;2023-03-26T20:08:26;6.90;99.90
44513;DHT22;30219;50.588;9.504;2023-03-26T20:10:52;6.90;99.90
44513;DHT22;30219;50.588;9.504;2023-03-26T20:13:18;7.00;99.90
44513;DHT22;30219;50.588;9.504;2023-03-26T20:15:45;7.00;99.90
44513;DHT22;30219;50.588;9.504;2023-03-26T20:18:12;6.90;99.90
44513;DHT22;30219;50.588;9.504;2023-03-26T20:20:38;6.90;99.90
44513;DHT22;30219;50.588;9.504;2023-03-26T20:23:09;6.80;99.90
44513;DHT22;30219;50.588;9.504;2023-03-26T20:25:34;6.80;99.90
44513;DHT22;30219;50.588;9.504;2023-03-26T20:28:00;6.80;99.90
44513;DHT22;30219;50.588;9.504;2023-03-26T20:30:25;6.80;99.90
44513;DHT22;30219;50.588;9.504;2023-03-26T20:32:53;6.90;99.90
44513;DHT22;30219;50.588;9.504;2023-03-26T20:35:22;6.90;99.90
44513;DHT22;30219;50.588;9.504;2023-03-26T20:37:48;6.80;99.90
44513;DHT22;30219;50.588;9.504;2023-03-26T20:40:14;6.90;99.90
44513;DHT22;30219;50.588;9.504;2023-03-26T20:42:40;6.90;99.90
44513;DHT22;30219;50.588;9.504;2023-03-26T20:47:37;6.80;99.90
44513;DHT22;30219;50.588;9.504;2023-03-26T20:50:03;6.80;99.90
44513;DHT22;30219;50.588;9.504;2023-03-26T20:52:29;6.90;99.90
44513;DHT22;30219;50.588;9.504;2023-03-26T20:54:54;6.90;99.90
44513;DHT22;30219;50.588;9.504;2023-03-26T20:57:20;6.90;99.90
44513;DHT22;30219;50.588;9.504;2023-03-26T20:59:46;6.80;99.90
44513;DHT22;30219;50.588;9.504;2023-03-26T21:02:11;6.90;99.90
44513;DHT22;30219;50.588;9.504;2023-03-26T21:04:36;6.80;99.90
44513;DHT22;30219;50.588;9.504;2023-03-26T21:07:02;6.80;99.90
44513;DHT22;30219;50.588;9.504;2023-03-26T21:09:29;6.70;99.90
44513;DHT22;30219;50.588;9.504;2023-03-26T21:12:14;6.70;99.90
44513;DHT22;30219;50.588;9.504;2023-03-26T21:14:41;6.70;99.90
44513;DHT22;30219;50.588;9.504;2023-03-26T21:17:18;6.70;99.90
44513;DHT22;30219;50.588;9.504;2023-03-26T21:19:44;6.70;99.90
44513;DHT22;30219;50.588;9.504;2023-03-26T21:22:28;6.60;99.90
44513;DHT22;30219;50.588;9.504;2023-03-26T21:25:13;6.70;99.90
44513;DHT22;30219;50.588;9.504;2023-03-26T21:27:57;6.60;99.90
44513;DHT22;30219;50.588;9.504;2023-03-26T21:30:25;6.60;99.90
44513;DHT22;30219;50.588;9.504;2023-03-26T21:32:51;6.60;99.90
44513;DHT22;30219;50.588;9.504;2023-03-26T21:35:17;6.50;99.90